sensor_id;sensor_type;location;lat;lon;timestamp;P1;durP1;ratioP1;P2;durP2;ratioP2
5819;SDS011;2936;47.348;9.640;2023-02-15T00:01:08;107.85;;;31.33;;
5819;SDS011;2936;47.348;9.640;2023-02-15T00:03:37;111.95;;;31.17;;
5819;SDS011;2936;47.348;9.640;2023-02-15T00:06:05;123.93;;;30.40;;
5819;SDS011;2936;47.348;9.640;2023-02-15T00:08:32;100.78;;;33.33;;
5819;SDS011;2936;47.348;9.640;2023-02-15T00:11:03;167.43;;;32.25;;
5819;SDS011;2936;47.348;9.640;2023-02-15T00:13:31;129.55;;;31.15;;
5819;SDS011;2936;47.348;9.640;2023-02-15T00:16:00;269.08;;;32.67;;
5819;SDS011;2936;47.348;9.640;2023-02-15T00:18:28;176.05;;;31.67;;
5819;SDS011;2936;47.348;9.640;2023-02-15T00:20:57;291.30;;;37.85;;
5819;SDS011;2936;47.348;9.640;2023-02-15T00:23:26;90.03;;;28.27;;
5819;SDS011;2936;47.348;9.640;2023-02-15T00:26:02;296.02;;;35.53;;
5819;SDS011;2936;47.348;9.640;2023-02-15T00:28:30;135.90;;;29.55;;
5819;SDS011;2936;47.348;9.640;2023-02-15T00:31:02;138.63;;;28.40;;
5819;SDS011;2936;47.348;9.640;2023-02-15T00:33:30;126.47;;;26.90;;
5819;SDS011;2936;47.348;9.640;2023-02-15T00:36:00;184.07;;;28.17;;
5819;SDS011;2936;47.348;9.640;2023-02-15T00:38:29;149.85;;;27.35;;
5819;SDS011;2936;47.348;9.640;2023-02-15T00:40:57;61.65;;;25.08;;
5819;SDS011;2936;47.348;9.640;2023-02-15T00:43:33;88.50;;;25.05;;
5819;SDS011;2936;47.348;9.640;2023-02-15T00:46:00;151.07;;;26.92;;
5819;SDS011;2936;47.348;9.640;2023-02-15T00:48:28;188.05;;;26.42;;
5819;SDS011;2936;47.348;9.640;2023-02-15T00:50:55;137.18;;;27.55;;
5819;SDS011;2936;47.348;9.640;2023-02-15T00:53:26;140.80;;;25.55;;
5819;SDS011;2936;47.348;9.640;2023-02-15T00:55:54;163.45;;;26.20;;
5819;SDS011;2936;47.348;9.640;2023-02-15T00:58:22;49.10;;;21.58;;
5819;SDS011;2936;47.348;9.640;2023-02-15T01:00:50;187.25;;;24.75;;
5819;SDS011;2936;47.348;9.640;2023-02-15T01:03:17;165.10;;;27.85;;
5819;SDS011;2936;47.348;9.640;2023-02-15T01:05:46;129.73;;;23.08;;
5819;SDS011;2936;47.348;9.640;2023-02-15T01:08:14;88.10;;;23.30;;
5819;SDS011;2936;47.348;9.640;2023-02-15T01:10:44;97.30;;;23.50;;
5819;SDS011;2936;47.348;9.640;2023-02-15T01:13:15;145.73;;;25.08;;
5819;SDS011;2936;47.348;9.640;2023-02-15T01:15:43;66.00;;;22.73;;
5819;SDS011;2936;47.348;9.640;2023-02-15T01:18:11;85.00;;;22.73;;
5819;SDS011;2936;47.348;9.640;2023-02-15T01:20:52;65.47;;;22.85;;
5819;SDS011;2936;47.348;9.640;2023-02-15T01:23:41;75.68;;;24.05;;
5819;SDS011;2936;47.348;9.640;2023-02-15T01:28:55;100.78;;;24.58;;
5819;SDS011;2936;47.348;9.640;2023-02-15T01:31:24;100.60;;;24.48;;
5819;SDS011;2936;47.348;9.640;2023-02-15T01:33:51;110.55;;;25.63;;
5819;SDS011;2936;47.348;9.640;2023-02-15T01:36:18;120.50;;;27.33;;
5819;SDS011;2936;47.348;9.640;2023-02-15T01:38:46;126.47;;;26.38;;
5819;SDS011;2936;47.348;9.640;2023-02-15T01:41:14;111.93;;;29.25;;
5819;SDS011;2936;47.348;9.640;2023-02-15T01:44:02;80.22;;;25.23;;
5819;SDS011;2936;47.348;9.640;2023-02-15T01:46:30;133.93;;;28.05;;
5819;SDS011;2936;47.348;9.640;2023-02-15T01:49:02;109.00;;;26.05;;
5819;SDS011;2936;47.348;9.640;2023-02-15T01:51:30;77.05;;;26.65;;
5819;SDS011;2936;47.348;9.640;2023-02-15T01:54:00;63.63;;;24.95;;
5819;SDS011;2936;47.348;9.640;2023-02-15T01:56:29;120.32;;;23.35;;
5819;SDS011;2936;47.348;9.640;2023-02-15T01:59:09;62.55;;;22.80;;
5819;SDS011;2936;47.348;9.640;2023-02-15T02:02:01;114.72;;;23.35;;
5819;SDS011;2936;47.348;9.640;2023-02-15T02:04:39;189.60;;;29.33;;
5819;SDS011;2936;47.348;9.640;2023-02-15T02:07:09;162.63;;;24.60;;
5819;SDS011;2936;47.348;9.640;2023-02-15T02:09:40;112.93;;;25.08;;
5819;SDS011;2936;47.348;9.640;2023-02-15T02:12:33;109.60;;;25.00;;
5819;SDS011;2936;47.348;9.640;2023-02-15T02:15:04;161.80;;;27.23;;
5819;SDS011;2936;47.348;9.640;2023-02-15T02:17:36;141.10;;;27.90;;
5819;SDS011;2936;47.348;9.640;2023-02-15T02:23:25;213.27;;;27.30;;
5819;SDS011;2936;47.348;9.640;2023-02-15T02:26:20;157.32;;;27.08;;
5819;SDS011;2936;47.348;9.640;2023-02-15T02:31:51;77.65;;;25.67;;
5819;SDS011;2936;47.348;9.640;2023-02-15T02:34:25;146.88;;;28.15;;
5819;SDS011;2936;47.348;9.640;2023-02-15T02:36:58;101.78;;;29.40;;
5819;SDS011;2936;47.348;9.640;2023-02-15T02:39:29;85.55;;;27.55;;
5819;SDS011;2936;47.348;9.640;2023-02-15T02:42:05;122.70;;;28.42;;
5819;SDS011;2936;47.348;9.640;2023-02-15T02:44:38;89.78;;;29.23;;
5819;SDS011;2936;47.348;9.640;2023-02-15T02:47:12;107.07;;;26.90;;
5819;SDS011;2936;47.348;9.640;2023-02-15T02:49:43;105.22;;;27.23;;
5819;SDS011;2936;47.348;9.640;2023-02-15T02:54:54;132.02;;;27.83;;
5819;SDS011;2936;47.348;9.640;2023-02-15T02:57:23;127.53;;;28.90;;
5819;SDS011;2936;47.348;9.640;2023-02-15T02:59:54;144.75;;;28.50;;
5819;SDS011;2936;47.348;9.640;2023-02-15T03:02:24;185.18;;;29.42;;
5819;SDS011;2936;47.348;9.640;2023-02-15T03:04:56;140.40;;;28.45;;
5819;SDS011;2936;47.348;9.640;2023-02-15T03:07:29;148.20;;;30.27;;
5819;SDS011;2936;47.348;9.640;2023-02-15T03:09:58;122.20;;;27.98;;
5819;SDS011;2936;47.348;9.640;2023-02-15T03:12:28;172.73;;;29.42;;
5819;SDS011;2936;47.348;9.640;2023-02-15T03:14:57;129.73;;;29.13;;
5819;SDS011;2936;47.348;9.640;2023-02-15T03:17:30;73.10;;;25.73;;
5819;SDS011;2936;47.348;9.640;2023-02-15T03:23:24;141.63;;;25.15;;
5819;SDS011;2936;47.348;9.640;2023-02-15T03:26:10;119.90;;;27.23;;
5819;SDS011;2936;47.348;9.640;2023-02-15T03:28:40;121.10;;;28.67;;
5819;SDS011;2936;47.348;9.640;2023-02-15T03:31:08;165.30;;;30.92;;
5819;SDS011;2936;47.348;9.640;2023-02-15T03:33:37;189.20;;;31.25;;
5819;SDS011;2936;47.348;9.640;2023-02-15T03:36:09;180.85;;;29.25;;
5819;SDS011;2936;47.348;9.640;2023-02-15T03:38:40;203.18;;;29.27;;
5819;SDS011;2936;47.348;9.640;2023-02-15T03:41:10;204.13;;;29.02;;
5819;SDS011;2936;47.348;9.640;2023-02-15T03:43:43;115.28;;;28.63;;
5819;SDS011;2936;47.348;9.640;2023-02-15T03:46:12;163.00;;;29.38;;
5819;SDS011;2936;47.348;9.640;2023-02-15T03:48:43;125.00;;;29.55;;
5819;SDS011;2936;47.348;9.640;2023-02-15T03:51:14;167.98;;;30.13;;
5819;SDS011;2936;47.348;9.640;2023-02-15T03:54:01;204.13;;;30.90;;
5819;SDS011;2936;47.348;9.640;2023-02-15T03:56:30;142.57;;;31.15;;
5819;SDS011;2936;47.348;9.640;2023-02-15T03:58:57;115.25;;;29.25;;
5819;SDS011;2936;47.348;9.640;2023-02-15T04:01:44;107.13;;;29.27;;
5819;SDS011;2936;47.348;9.640;2023-02-15T04:04:27;114.70;;;27.77;;
5819;SDS011;2936;47.348;9.640;2023-02-15T04:06:58;157.88;;;30.40;;
5819;SDS011;2936;47.348;9.640;2023-02-15T04:09:25;136.75;;;28.08;;
5819;SDS011;2936;47.348;9.640;2023-02-15T04:12:10;152.95;;;30.15;;
5819;SDS011;2936;47.348;9.640;2023-02-15T04:14:38;151.65;;;30.77;;
5819;SDS011;2936;47.348;9.640;2023-02-15T04:17:23;124.45;;;29.60;;
5819;SDS011;2936;47.348;9.640;2023-02-15T04:19:50;176.13;;;30.90;;
5819;SDS011;2936;47.348;9.640;2023-02-15T04:22:36;103.05;;;27.30;;
5819;SDS011;2936;47.348;9.640;2023-02-15T04:25:21;115.88;;;27.80;;
5819;SDS011;2936;47.348;9.640;2023-02-15T04:27:49;114.15;;;26.10;;
5819;SDS011;2936;47.348;9.640;2023-02-15T04:30:18;158.20;;;31.88;;
5819;SDS011;2936;47.348;9.640;2023-02-15T04:32:46;106.05;;;29.10;;
5819;SDS011;2936;47.348;9.640;2023-02-15T04:35:14;99.60;;;27.10;;
5819;SDS011;2936;47.348;9.640;2023-02-15T04:37:43;127.40;;;27.40;;
5819;SDS011;2936;47.348;9.640;2023-02-15T04:40:11;119.53;;;28.30;;
5819;SDS011;2936;47.348;9.640;2023-02-15T04:42:39;94.18;;;28.42;;
5819;SDS011;2936;47.348;9.640;2023-02-15T04:45:06;75.75;;;27.20;;
5819;SDS011;2936;47.348;9.640;2023-02-15T04:47:34;102.75;;;28.50;;
5819;SDS011;2936;47.348;9.640;2023-02-15T04:50:02;111.57;;;25.35;;
5819;SDS011;2936;47.348;9.640;2023-02-15T04:52:29;137.48;;;27.38;;
5819;SDS011;2936;47.348;9.640;2023-02-15T04:54:59;146.68;;;27.83;;
5819;SDS011;2936;47.348;9.640;2023-02-15T04:57:27;81.55;;;25.75;;
5819;SDS011;2936;47.348;9.640;2023-02-15T04:59:54;72.32;;;26.02;;
5819;SDS011;2936;47.348;9.640;2023-02-15T05:05:36;71.70;;;26.58;;
5819;SDS011;2936;47.348;9.640;2023-02-15T05:08:08;61.97;;;25.17;;
5819;SDS011;2936;47.348;9.640;2023-02-15T05:14:06;81.60;;;28.05;;
5819;SDS011;2936;47.348;9.640;2023-02-15T05:16:33;92.80;;;27.25;;
5819;SDS011;2936;47.348;9.640;2023-02-15T05:19:01;115.65;;;27.83;;
5819;SDS011;2936;47.348;9.640;2023-02-15T05:21:28;58.40;;;23.48;;
5819;SDS011;2936;47.348;9.640;2023-02-15T05:23:56;117.70;;;27.77;;
5819;SDS011;2936;47.348;9.640;2023-02-15T05:26:24;56.88;;;24.67;;
5819;SDS011;2936;47.348;9.640;2023-02-15T05:29:10;85.45;;;24.70;;
5819;SDS011;2936;47.348;9.640;2023-02-15T05:31:38;86.40;;;29.65;;
5819;SDS011;2936;47.348;9.640;2023-02-15T05:34:05;62.28;;;23.40;;
5819;SDS011;2936;47.348;9.640;2023-02-15T05:36:32;60.40;;;25.25;;
5819;SDS011;2936;47.348;9.640;2023-02-15T05:39:00;66.68;;;25.13;;
5819;SDS011;2936;47.348;9.640;2023-02-15T05:41:29;68.35;;;25.10;;
5819;SDS011;2936;47.348;9.640;2023-02-15T05:43:56;62.65;;;25.48;;
5819;SDS011;2936;47.348;9.640;2023-02-15T05:46:25;59.90;;;25.30;;
5819;SDS011;2936;47.348;9.640;2023-02-15T05:48:52;69.60;;;22.80;;
5819;SDS011;2936;47.348;9.640;2023-02-15T05:51:20;52.45;;;22.90;;
5819;SDS011;2936;47.348;9.640;2023-02-15T05:53:48;43.38;;;22.20;;
5819;SDS011;2936;47.348;9.640;2023-02-15T05:56:15;47.40;;;21.40;;
5819;SDS011;2936;47.348;9.640;2023-02-15T05:58:43;45.28;;;20.98;;
5819;SDS011;2936;47.348;9.640;2023-02-15T06:01:10;46.20;;;21.08;;
5819;SDS011;2936;47.348;9.640;2023-02-15T06:03:40;47.53;;;21.05;;
5819;SDS011;2936;47.348;9.640;2023-02-15T06:06:07;59.53;;;22.70;;
5819;SDS011;2936;47.348;9.640;2023-02-15T06:08:35;47.95;;;22.08;;
5819;SDS011;2936;47.348;9.640;2023-02-15T06:11:04;46.35;;;22.67;;
5819;SDS011;2936;47.348;9.640;2023-02-15T06:13:32;48.85;;;20.75;;
5819;SDS011;2936;47.348;9.640;2023-02-15T06:16:00;94.97;;;24.48;;
5819;SDS011;2936;47.348;9.640;2023-02-15T06:18:47;48.30;;;22.63;;
5819;SDS011;2936;47.348;9.640;2023-02-15T06:21:16;52.58;;;24.23;;
5819;SDS011;2936;47.348;9.640;2023-02-15T06:23:43;45.95;;;21.65;;
5819;SDS011;2936;47.348;9.640;2023-02-15T06:26:10;48.55;;;21.75;;
5819;SDS011;2936;47.348;9.640;2023-02-15T06:28:38;49.45;;;23.48;;
5819;SDS011;2936;47.348;9.640;2023-02-15T06:31:06;49.70;;;23.52;;
5819;SDS011;2936;47.348;9.640;2023-02-15T06:33:33;72.68;;;22.83;;
5819;SDS011;2936;47.348;9.640;2023-02-15T06:36:06;57.83;;;23.25;;
5819;SDS011;2936;47.348;9.640;2023-02-15T06:38:33;43.85;;;22.98;;
5819;SDS011;2936;47.348;9.640;2023-02-15T06:41:01;63.83;;;28.88;;
5819;SDS011;2936;47.348;9.640;2023-02-15T06:43:28;48.78;;;25.58;;
5819;SDS011;2936;47.348;9.640;2023-02-15T06:45:56;67.03;;;25.27;;
5819;SDS011;2936;47.348;9.640;2023-02-15T06:48:23;48.97;;;24.15;;
5819;SDS011;2936;47.348;9.640;2023-02-15T06:50:51;49.03;;;20.40;;
5819;SDS011;2936;47.348;9.640;2023-02-15T06:53:20;41.35;;;19.42;;
5819;SDS011;2936;47.348;9.640;2023-02-15T06:55:47;88.30;;;21.65;;
5819;SDS011;2936;47.348;9.640;2023-02-15T06:58:15;90.30;;;21.58;;
5819;SDS011;2936;47.348;9.640;2023-02-15T07:00:42;91.47;;;21.85;;
5819;SDS011;2936;47.348;9.640;2023-02-15T07:03:14;47.60;;;20.48;;
5819;SDS011;2936;47.348;9.640;2023-02-15T07:05:41;88.85;;;19.63;;
5819;SDS011;2936;47.348;9.640;2023-02-15T07:08:09;52.88;;;18.27;;
5819;SDS011;2936;47.348;9.640;2023-02-15T07:10:38;48.10;;;18.67;;
5819;SDS011;2936;47.348;9.640;2023-02-15T07:13:06;78.00;;;19.20;;
5819;SDS011;2936;47.348;9.640;2023-02-15T07:15:32;137.15;;;23.83;;
5819;SDS011;2936;47.348;9.640;2023-02-15T07:18:00;69.20;;;21.38;;
5819;SDS011;2936;47.348;9.640;2023-02-15T07:20:27;46.00;;;20.13;;
5819;SDS011;2936;47.348;9.640;2023-02-15T07:22:55;41.08;;;20.42;;
5819;SDS011;2936;47.348;9.640;2023-02-15T07:25:22;49.33;;;20.13;;
5819;SDS011;2936;47.348;9.640;2023-02-15T07:27:56;68.60;;;21.40;;
5819;SDS011;2936;47.348;9.640;2023-02-15T07:30:23;49.70;;;18.17;;
5819;SDS011;2936;47.348;9.640;2023-02-15T07:32:54;52.67;;;19.25;;
5819;SDS011;2936;47.348;9.640;2023-02-15T07:35:45;97.75;;;21.13;;
5819;SDS011;2936;47.348;9.640;2023-02-15T07:38:13;74.85;;;19.27;;
5819;SDS011;2936;47.348;9.640;2023-02-15T07:40:40;69.25;;;20.60;;
5819;SDS011;2936;47.348;9.640;2023-02-15T07:43:09;47.85;;;18.83;;
5819;SDS011;2936;47.348;9.640;2023-02-15T07:45:37;46.67;;;21.02;;
5819;SDS011;2936;47.348;9.640;2023-02-15T07:48:05;72.40;;;19.75;;
5819;SDS011;2936;47.348;9.640;2023-02-15T07:50:33;54.20;;;19.75;;
5819;SDS011;2936;47.348;9.640;2023-02-15T07:53:01;68.15;;;21.05;;
5819;SDS011;2936;47.348;9.640;2023-02-15T07:55:28;169.68;;;23.80;;
5819;SDS011;2936;47.348;9.640;2023-02-15T07:57:56;51.65;;;19.73;;
5819;SDS011;2936;47.348;9.640;2023-02-15T08:00:25;58.78;;;20.73;;
5819;SDS011;2936;47.348;9.640;2023-02-15T08:02:55;81.95;;;21.17;;
5819;SDS011;2936;47.348;9.640;2023-02-15T08:05:41;85.45;;;21.67;;
5819;SDS011;2936;47.348;9.640;2023-02-15T08:08:09;61.03;;;20.67;;
5819;SDS011;2936;47.348;9.640;2023-02-15T08:10:57;82.45;;;22.33;;
5819;SDS011;2936;47.348;9.640;2023-02-15T08:13:42;55.38;;;21.17;;
5819;SDS011;2936;47.348;9.640;2023-02-15T08:16:21;83.25;;;23.33;;
5819;SDS011;2936;47.348;9.640;2023-02-15T08:18:51;51.15;;;21.33;;
5819;SDS011;2936;47.348;9.640;2023-02-15T08:21:22;55.72;;;21.27;;
5819;SDS011;2936;47.348;9.640;2023-02-15T08:23:50;87.85;;;22.25;;
5819;SDS011;2936;47.348;9.640;2023-02-15T08:26:18;60.50;;;21.35;;
5819;SDS011;2936;47.348;9.640;2023-02-15T08:28:48;59.35;;;21.92;;
5819;SDS011;2936;47.348;9.640;2023-02-15T08:31:17;47.88;;;23.38;;
5819;SDS011;2936;47.348;9.640;2023-02-15T08:33:53;82.70;;;22.67;;
5819;SDS011;2936;47.348;9.640;2023-02-15T08:36:35;69.85;;;23.55;;
5819;SDS011;2936;47.348;9.640;2023-02-15T08:39:03;80.10;;;24.27;;
5819;SDS011;2936;47.348;9.640;2023-02-15T08:41:31;82.57;;;24.17;;
5819;SDS011;2936;47.348;9.640;2023-02-15T08:44:01;59.13;;;24.63;;
5819;SDS011;2936;47.348;9.640;2023-02-15T08:46:29;69.13;;;25.50;;
5819;SDS011;2936;47.348;9.640;2023-02-15T08:48:58;67.72;;;24.35;;
5819;SDS011;2936;47.348;9.640;2023-02-15T08:51:27;62.00;;;22.58;;
5819;SDS011;2936;47.348;9.640;2023-02-15T08:53:56;75.80;;;22.73;;
5819;SDS011;2936;47.348;9.640;2023-02-15T08:56:26;57.15;;;23.77;;
5819;SDS011;2936;47.348;9.640;2023-02-15T08:58:57;107.65;;;26.70;;
5819;SDS011;2936;47.348;9.640;2023-02-15T09:01:25;44.45;;;22.48;;
5819;SDS011;2936;47.348;9.640;2023-02-15T09:03:55;55.25;;;22.08;;
5819;SDS011;2936;47.348;9.640;2023-02-15T09:06:24;49.47;;;21.88;;
5819;SDS011;2936;47.348;9.640;2023-02-15T09:08:52;80.07;;;24.05;;
5819;SDS011;2936;47.348;9.640;2023-02-15T09:11:21;81.80;;;22.90;;
5819;SDS011;2936;47.348;9.640;2023-02-15T09:13:51;62.60;;;22.55;;
5819;SDS011;2936;47.348;9.640;2023-02-15T09:16:19;71.85;;;22.95;;
5819;SDS011;2936;47.348;9.640;2023-02-15T09:18:47;77.32;;;20.80;;
5819;SDS011;2936;47.348;9.640;2023-02-15T09:21:16;45.88;;;22.70;;
5819;SDS011;2936;47.348;9.640;2023-02-15T09:23:46;82.25;;;22.02;;
5819;SDS011;2936;47.348;9.640;2023-02-15T09:26:20;65.97;;;23.63;;
5819;SDS011;2936;47.348;9.640;2023-02-15T09:28:47;88.45;;;24.42;;
5819;SDS011;2936;47.348;9.640;2023-02-15T09:31:19;61.97;;;24.17;;
5819;SDS011;2936;47.348;9.640;2023-02-15T09:33:47;70.43;;;21.75;;
5819;SDS011;2936;47.348;9.640;2023-02-15T09:36:16;43.67;;;21.75;;
5819;SDS011;2936;47.348;9.640;2023-02-15T09:38:45;88.13;;;22.98;;
5819;SDS011;2936;47.348;9.640;2023-02-15T09:44:03;58.47;;;20.17;;
5819;SDS011;2936;47.348;9.640;2023-02-15T09:46:46;46.88;;;22.27;;
5819;SDS011;2936;47.348;9.640;2023-02-15T09:49:19;84.72;;;23.88;;
5819;SDS011;2936;47.348;9.640;2023-02-15T09:51:55;42.10;;;21.77;;
5819;SDS011;2936;47.348;9.640;2023-02-15T09:54:34;65.82;;;23.60;;
5819;SDS011;2936;47.348;9.640;2023-02-15T09:57:07;57.67;;;24.70;;
5819;SDS011;2936;47.348;9.640;2023-02-15T09:59:39;69.38;;;24.70;;
5819;SDS011;2936;47.348;9.640;2023-02-15T10:02:14;61.58;;;22.88;;
5819;SDS011;2936;47.348;9.640;2023-02-15T10:04:49;42.53;;;21.50;;
5819;SDS011;2936;47.348;9.640;2023-02-15T10:07:27;78.25;;;26.05;;
5819;SDS011;2936;47.348;9.640;2023-02-15T10:10:02;61.05;;;24.50;;
5819;SDS011;2936;47.348;9.640;2023-02-15T10:12:39;48.40;;;22.70;;
5819;SDS011;2936;47.348;9.640;2023-02-15T10:15:17;44.70;;;23.05;;
5819;SDS011;2936;47.348;9.640;2023-02-15T10:17:52;58.92;;;25.20;;
5819;SDS011;2936;47.348;9.640;2023-02-15T10:20:26;47.08;;;24.13;;
5819;SDS011;2936;47.348;9.640;2023-02-15T10:23:05;52.40;;;24.08;;
5819;SDS011;2936;47.348;9.640;2023-02-15T10:25:40;56.50;;;25.17;;
5819;SDS011;2936;47.348;9.640;2023-02-15T10:28:11;49.95;;;24.90;;
5819;SDS011;2936;47.348;9.640;2023-02-15T10:30:42;52.97;;;24.17;;
5819;SDS011;2936;47.348;9.640;2023-02-15T10:33:13;50.08;;;24.50;;
5819;SDS011;2936;47.348;9.640;2023-02-15T10:35:45;55.10;;;24.15;;
5819;SDS011;2936;47.348;9.640;2023-02-15T10:38:18;52.20;;;25.15;;
5819;SDS011;2936;47.348;9.640;2023-02-15T10:40:54;52.95;;;26.05;;
5819;SDS011;2936;47.348;9.640;2023-02-15T10:43:30;50.53;;;26.25;;
5819;SDS011;2936;47.348;9.640;2023-02-15T10:46:02;43.70;;;24.63;;
5819;SDS011;2936;47.348;9.640;2023-02-15T10:48:42;48.15;;;25.50;;
5819;SDS011;2936;47.348;9.640;2023-02-15T10:51:19;45.38;;;23.17;;
5819;SDS011;2936;47.348;9.640;2023-02-15T10:53:52;40.53;;;22.65;;
5819;SDS011;2936;47.348;9.640;2023-02-15T10:56:25;60.80;;;28.48;;
5819;SDS011;2936;47.348;9.640;2023-02-15T10:59:02;50.33;;;24.73;;
5819;SDS011;2936;47.348;9.640;2023-02-15T11:01:34;48.10;;;25.63;;
5819;SDS011;2936;47.348;9.640;2023-02-15T11:06:48;54.42;;;24.45;;
5819;SDS011;2936;47.348;9.640;2023-02-15T11:09:19;53.72;;;25.25;;
5819;SDS011;2936;47.348;9.640;2023-02-15T11:11:51;45.83;;;22.75;;
5819;SDS011;2936;47.348;9.640;2023-02-15T11:14:38;52.33;;;24.17;;
5819;SDS011;2936;47.348;9.640;2023-02-15T11:17:08;40.13;;;21.88;;
5819;SDS011;2936;47.348;9.640;2023-02-15T11:19:37;52.35;;;21.65;;
5819;SDS011;2936;47.348;9.640;2023-02-15T11:22:06;49.33;;;23.50;;
5819;SDS011;2936;47.348;9.640;2023-02-15T11:24:36;52.05;;;24.88;;
5819;SDS011;2936;47.348;9.640;2023-02-15T11:27:13;50.33;;;24.98;;
5819;SDS011;2936;47.348;9.640;2023-02-15T11:29:50;40.72;;;21.92;;
5819;SDS011;2936;47.348;9.640;2023-02-15T11:32:20;43.35;;;24.05;;
5819;SDS011;2936;47.348;9.640;2023-02-15T11:34:49;52.40;;;26.00;;
5819;SDS011;2936;47.348;9.640;2023-02-15T11:37:20;57.92;;;25.50;;
5819;SDS011;2936;47.348;9.640;2023-02-15T11:39:51;50.30;;;24.88;;
5819;SDS011;2936;47.348;9.640;2023-02-15T11:42:21;58.97;;;27.02;;
5819;SDS011;2936;47.348;9.640;2023-02-15T11:44:54;42.45;;;23.08;;
5819;SDS011;2936;47.348;9.640;2023-02-15T11:47:23;58.20;;;26.15;;
5819;SDS011;2936;47.348;9.640;2023-02-15T11:49:51;50.80;;;24.42;;
5819;SDS011;2936;47.348;9.640;2023-02-15T11:52:18;175.70;;;34.70;;
5819;SDS011;2936;47.348;9.640;2023-02-15T11:54:48;80.68;;;27.00;;
5819;SDS011;2936;47.348;9.640;2023-02-15T11:57:17;57.35;;;25.83;;
5819;SDS011;2936;47.348;9.640;2023-02-15T11:59:48;52.45;;;24.25;;
5819;SDS011;2936;47.348;9.640;2023-02-15T12:02:17;72.03;;;25.10;;
5819;SDS011;2936;47.348;9.640;2023-02-15T12:04:47;60.60;;;24.27;;
5819;SDS011;2936;47.348;9.640;2023-02-15T12:07:17;62.90;;;21.73;;
5819;SDS011;2936;47.348;9.640;2023-02-15T12:09:48;41.13;;;24.40;;
5819;SDS011;2936;47.348;9.640;2023-02-15T12:12:21;47.10;;;26.60;;
5819;SDS011;2936;47.348;9.640;2023-02-15T12:14:54;54.60;;;24.95;;
5819;SDS011;2936;47.348;9.640;2023-02-15T12:17:23;60.28;;;23.67;;
5819;SDS011;2936;47.348;9.640;2023-02-15T12:19:52;60.28;;;25.15;;
5819;SDS011;2936;47.348;9.640;2023-02-15T12:22:36;122.15;;;27.20;;
5819;SDS011;2936;47.348;9.640;2023-02-15T12:25:04;42.88;;;21.55;;
5819;SDS011;2936;47.348;9.640;2023-02-15T12:27:46;62.30;;;20.90;;
5819;SDS011;2936;47.348;9.640;2023-02-15T12:30:18;64.93;;;23.20;;
5819;SDS011;2936;47.348;9.640;2023-02-15T12:32:47;37.97;;;21.45;;
5819;SDS011;2936;47.348;9.640;2023-02-15T12:35:31;67.57;;;22.90;;
5819;SDS011;2936;47.348;9.640;2023-02-15T12:38:00;42.33;;;22.65;;
5819;SDS011;2936;47.348;9.640;2023-02-15T12:40:31;47.45;;;23.30;;
5819;SDS011;2936;47.348;9.640;2023-02-15T12:43:00;64.78;;;25.65;;
5819;SDS011;2936;47.348;9.640;2023-02-15T12:45:36;46.03;;;25.55;;
5819;SDS011;2936;47.348;9.640;2023-02-15T12:48:13;46.85;;;23.83;;
5819;SDS011;2936;47.348;9.640;2023-02-15T12:50:42;45.75;;;22.48;;
5819;SDS011;2936;47.348;9.640;2023-02-15T12:53:13;66.68;;;23.20;;
5819;SDS011;2936;47.348;9.640;2023-02-15T12:55:50;45.85;;;22.80;;
5819;SDS011;2936;47.348;9.640;2023-02-15T12:58:22;47.92;;;22.27;;
5819;SDS011;2936;47.348;9.640;2023-02-15T13:01:03;42.67;;;22.70;;
5819;SDS011;2936;47.348;9.640;2023-02-15T13:03:31;54.50;;;21.77;;
5819;SDS011;2936;47.348;9.640;2023-02-15T13:05:58;59.63;;;22.08;;
5819;SDS011;2936;47.348;9.640;2023-02-15T13:08:27;39.25;;;23.23;;
5819;SDS011;2936;47.348;9.640;2023-02-15T13:10:56;41.78;;;22.80;;
5819;SDS011;2936;47.348;9.640;2023-02-15T13:13:26;61.72;;;23.00;;
5819;SDS011;2936;47.348;9.640;2023-02-15T13:15:54;40.83;;;22.85;;
5819;SDS011;2936;47.348;9.640;2023-02-15T13:18:28;53.03;;;23.10;;
5819;SDS011;2936;47.348;9.640;2023-02-15T13:20:56;41.03;;;22.75;;
5819;SDS011;2936;47.348;9.640;2023-02-15T13:23:25;41.83;;;23.42;;
5819;SDS011;2936;47.348;9.640;2023-02-15T13:25:54;41.13;;;24.52;;
5819;SDS011;2936;47.348;9.640;2023-02-15T13:28:24;54.00;;;23.65;;
5819;SDS011;2936;47.348;9.640;2023-02-15T13:30:53;38.58;;;22.75;;
5819;SDS011;2936;47.348;9.640;2023-02-15T13:33:23;42.17;;;23.63;;
5819;SDS011;2936;47.348;9.640;2023-02-15T13:36:01;45.22;;;23.77;;
5819;SDS011;2936;47.348;9.640;2023-02-15T13:38:46;60.53;;;26.80;;
5819;SDS011;2936;47.348;9.640;2023-02-15T13:41:17;45.00;;;22.90;;
5819;SDS011;2936;47.348;9.640;2023-02-15T13:43:49;39.03;;;21.88;;
5819;SDS011;2936;47.348;9.640;2023-02-15T13:46:21;39.88;;;23.00;;
5819;SDS011;2936;47.348;9.640;2023-02-15T13:48:52;39.17;;;22.95;;
5819;SDS011;2936;47.348;9.640;2023-02-15T13:51:25;49.95;;;22.88;;
5819;SDS011;2936;47.348;9.640;2023-02-15T13:54:08;37.38;;;22.70;;
5819;SDS011;2936;47.348;9.640;2023-02-15T13:56:43;55.70;;;24.80;;
5819;SDS011;2936;47.348;9.640;2023-02-15T13:59:18;58.75;;;24.52;;
5819;SDS011;2936;47.348;9.640;2023-02-15T14:01:53;49.00;;;22.75;;
5819;SDS011;2936;47.348;9.640;2023-02-15T14:04:39;45.97;;;23.42;;
5819;SDS011;2936;47.348;9.640;2023-02-15T14:07:35;50.33;;;25.15;;
5819;SDS011;2936;47.348;9.640;2023-02-15T14:10:11;52.80;;;24.30;;
5819;SDS011;2936;47.348;9.640;2023-02-15T14:12:43;46.33;;;24.13;;
5819;SDS011;2936;47.348;9.640;2023-02-15T14:15:14;39.35;;;22.20;;
5819;SDS011;2936;47.348;9.640;2023-02-15T14:17:50;41.47;;;22.35;;
5819;SDS011;2936;47.348;9.640;2023-02-15T14:20:20;42.88;;;23.40;;
5819;SDS011;2936;47.348;9.640;2023-02-15T14:22:52;50.88;;;25.10;;
5819;SDS011;2936;47.348;9.640;2023-02-15T14:25:25;64.18;;;27.00;;
5819;SDS011;2936;47.348;9.640;2023-02-15T14:27:56;39.75;;;22.40;;
5819;SDS011;2936;47.348;9.640;2023-02-15T14:30:26;63.25;;;24.55;;
5819;SDS011;2936;47.348;9.640;2023-02-15T14:32:57;41.30;;;23.00;;
5819;SDS011;2936;47.348;9.640;2023-02-15T14:35:27;70.40;;;27.20;;
5819;SDS011;2936;47.348;9.640;2023-02-15T14:38:00;39.60;;;23.92;;
5819;SDS011;2936;47.348;9.640;2023-02-15T14:40:32;62.97;;;26.20;;
5819;SDS011;2936;47.348;9.640;2023-02-15T14:43:21;41.20;;;23.80;;
5819;SDS011;2936;47.348;9.640;2023-02-15T14:45:53;46.08;;;23.77;;
5819;SDS011;2936;47.348;9.640;2023-02-15T14:48:21;39.22;;;22.40;;
5819;SDS011;2936;47.348;9.640;2023-02-15T14:50:50;44.90;;;23.05;;
5819;SDS011;2936;47.348;9.640;2023-02-15T14:56:15;44.60;;;23.83;;
5819;SDS011;2936;47.348;9.640;2023-02-15T14:58:54;44.15;;;23.17;;
5819;SDS011;2936;47.348;9.640;2023-02-15T15:01:24;50.38;;;24.92;;
5819;SDS011;2936;47.348;9.640;2023-02-15T15:03:53;57.05;;;26.95;;
5819;SDS011;2936;47.348;9.640;2023-02-15T15:06:23;40.47;;;22.60;;
5819;SDS011;2936;47.348;9.640;2023-02-15T15:08:53;42.33;;;23.63;;
5819;SDS011;2936;47.348;9.640;2023-02-15T15:11:43;50.55;;;26.10;;
5819;SDS011;2936;47.348;9.640;2023-02-15T15:17:04;54.40;;;23.67;;
5819;SDS011;2936;47.348;9.640;2023-02-15T15:22:40;66.47;;;23.48;;
5819;SDS011;2936;47.348;9.640;2023-02-15T15:25:11;39.83;;;22.40;;
5819;SDS011;2936;47.348;9.640;2023-02-15T15:33:46;39.67;;;23.88;;
5819;SDS011;2936;47.348;9.640;2023-02-15T15:39:10;42.63;;;23.02;;
5819;SDS011;2936;47.348;9.640;2023-02-15T15:41:43;53.05;;;25.08;;
5819;SDS011;2936;47.348;9.640;2023-02-15T15:44:24;42.85;;;24.90;;
5819;SDS011;2936;47.348;9.640;2023-02-15T15:47:12;47.20;;;28.45;;
5819;SDS011;2936;47.348;9.640;2023-02-15T15:49:46;52.90;;;26.63;;
5819;SDS011;2936;47.348;9.640;2023-02-15T15:52:18;40.35;;;24.30;;
5819;SDS011;2936;47.348;9.640;2023-02-15T15:54:46;48.15;;;23.05;;